Time;durP1;ratioP1;P1;durP2;ratioP2;P2;SDS_P1;SDS_P2;PMS_P1;PMS_P2;Temp;Humidity;BMP_temperature;BMP_pressure;BME280_temperature;BME280_humidity;BME280_pressure;Samples;Min_cycle;Max_cycle;Signal;HPM_P1;HPM_P2
2023/06/30 00:01:48;;;;;;;7.20;5.93;;;;;;;;;;5057743;28;20075;-79
2023/06/30 00:04:16;;;;;;;9.02;6.15;;;;;;;;;;5057440;28;20036;-79
2023/06/30 00:06:42;;;;;;;6.00;5.47;;;;;;;;;;5057573;28;20450;-80
2023/06/30 00:09:08;;;;;;;9.30;5.82;;;;;;;;;;5059227;28;20064;-79
2023/06/30 00:11:33;;;;;;;9.68;5.95;;;;;;;;;;5057998;28;20060;-80
2023/06/30 00:13:59;;;;;;;7.40;5.95;;;;;;;;;;5075069;28;20036;-80
2023/06/30 00:16:24;;;;;;;13.40;6.05;;;;;;;;;;5057425;28;20333;-80
2023/06/30 00:18:50;;;;;;;9.35;6.05;;;;;;;;;;5074898;28;20409;-81
2023/06/30 00:21:15;;;;;;;9.38;6.00;;;;;;;;;;5040316;28;20040;-81
2023/06/30 00:23:41;;;;;;;9.73;5.88;;;;;;;;;;5074729;28;20371;-81
2023/06/30 00:26:07;;;;;;;7.22;6.18;;;;;;;;;;5057599;28;20036;-80
2023/06/30 00:28:32;;;;;;;8.43;6.28;;;;;;;;;;5040504;28;20114;-80
2023/06/30 00:30:57;;;;;;;12.80;6.43;;;;;;;;;;5074637;28;20028;-79
2023/06/30 00:33:23;;;;;;;8.02;5.70;;;;;;;;;;5057329;28;20043;-80
2023/06/30 00:35:48;;;;;;;7.28;6.30;;;;;;;;;;5056447;28;20040;-80
2023/06/30 00:38:14;;;;;;;6.93;6.07;;;;;;;;;;5040313;28;20033;-80
2023/06/30 00:40:39;;;;;;;10.50;6.35;;;;;;;;;;5074480;28;20059;-80
2023/06/30 00:43:05;;;;;;;11.73;6.13;;;;;;;;;;5074459;28;20104;-80
2023/06/30 00:45:30;;;;;;;9.68;6.03;;;;;;;;;;5074380;28;20032;-80
2023/06/30 00:47:55;;;;;;;7.85;6.07;;;;;;;;;;5040128;28;20029;-80
2023/06/30 00:50:21;;;;;;;8.07;6.50;;;;;;;;;;5039710;28;20028;-79
2023/06/30 00:52:48;;;;;;;8.48;6.50;;;;;;;;;;5056529;28;20131;-80
2023/06/30 00:55:14;;;;;;;7.05;6.00;;;;;;;;;;5040288;28;20032;-80
2023/06/30 00:57:39;;;;;;;8.32;5.97;;;;;;;;;;5074211;28;20024;-80
2023/06/30 01:00:10;;;;;;;8.00;6.07;;;;;;;;;;5056893;28;20482;-80
2023/06/30 01:02:36;;;;;;;8.10;6.72;;;;;;;;;;5056290;28;20051;-80
2023/06/30 01:05:08;;;;;;;13.32;7.00;;;;;;;;;;5039640;28;20089;-81
2023/06/30 01:07:36;;;;;;;9.52;6.88;;;;;;;;;;5039385;28;20071;-80
2023/06/30 01:10:21;;;;;;;8.95;6.80;;;;;;;;;;5073701;28;20440;-80
2023/06/30 01:12:46;;;;;;;7.80;7.00;;;;;;;;;;5056817;28;20036;-80
2023/06/30 01:15:13;;;;;;;8.30;6.57;;;;;;;;;;5039549;28;20039;-80
2023/06/30 01:17:44;;;;;;;7.68;6.82;;;;;;;;;;5039903;28;20074;-80
2023/06/30 01:20:11;;;;;;;6.70;6.00;;;;;;;;;;5056777;28;20024;-81
2023/06/30 01:22:43;;;;;;;7.72;6.68;;;;;;;;;;5039794;28;20033;-81
2023/06/30 01:25:11;;;;;;;6.97;6.28;;;;;;;;;;5056192;28;20021;-80
2023/06/30 01:27:38;;;;;;;9.75;6.63;;;;;;;;;;5039817;28;20024;-81
2023/06/30 01:30:08;;;;;;;9.48;7.18;;;;;;;;;;5039777;28;20032;-79
2023/06/30 01:32:33;;;;;;;;;;;;;;;;;;5024235;28;20375;-81
2023/06/30 01:34:59;;;;;;;9.18;6.90;;;;;;;;;;5039177;28;20018;-80
2023/06/30 01:37:24;;;;;;;10.80;7.25;;;;;;;;;;5055937;28;20029;-79
2023/06/30 01:39:50;;;;;;;7.55;6.80;;;;;;;;;;5074134;28;20033;-80
2023/06/30 01:42:15;;;;;;;9.05;6.90;;;;;;;;;;5073784;28;20024;-80
2023/06/30 01:44:41;;;;;;;10.25;7.03;;;;;;;;;;5055886;28;20505;-80
2023/06/30 01:47:06;;;;;;;7.32;6.63;;;;;;;;;;5039250;28;20406;-80
2023/06/30 01:49:32;;;;;;;13.32;7.40;;;;;;;;;;5039124;28;20507;-80
2023/06/30 01:51:58;;;;;;;8.90;7.47;;;;;;;;;;5039243;28;20049;-80
2023/06/30 01:54:23;;;;;;;9.68;7.38;;;;;;;;;;5073624;28;20046;-80
2023/06/30 01:56:49;;;;;;;9.65;7.50;;;;;;;;;;5055970;28;20127;-81
2023/06/30 01:59:14;;;;;;;7.68;6.85;;;;;;;;;;5039213;28;20028;-81
2023/06/30 02:01:40;;;;;;;10.70;7.13;;;;;;;;;;5073650;28;20067;-80
2023/06/30 02:04:05;;;;;;;7.90;7.10;;;;;;;;;;5039006;28;20032;-80
2023/06/30 02:06:31;;;;;;;9.07;7.18;;;;;;;;;;5055946;28;20037;-80
2023/06/30 02:08:56;;;;;;;10.02;6.80;;;;;;;;;;5055772;28;20020;-80
2023/06/30 02:11:21;;;;;;;8.43;6.70;;;;;;;;;;5073544;28;20036;-79
2023/06/30 02:13:47;;;;;;;9.48;7.30;;;;;;;;;;5073533;28;20048;-80
2023/06/30 02:16:13;;;;;;;12.05;7.28;;;;;;;;;;5055687;28;20055;-81
2023/06/30 02:18:39;;;;;;;10.57;7.40;;;;;;;;;;5038950;28;20028;-80
2023/06/30 02:21:05;;;;;;;9.82;7.65;;;;;;;;;;5042592;28;20436;-80
2023/06/30 02:23:30;;;;;;;8.25;6.80;;;;;;;;;;5043320;28;20414;-80
2023/06/30 02:25:56;;;;;;;7.82;7.03;;;;;;;;;;5059318;28;20033;-80
2023/06/30 02:28:22;;;;;;;12.20;7.53;;;;;;;;;;5077132;28;20064;-80
2023/06/30 02:30:47;;;;;;;9.75;6.95;;;;;;;;;;5059572;28;20029;-80
2023/06/30 02:33:13;;;;;;;8.63;7.00;;;;;;;;;;5058993;28;20399;-81
2023/06/30 02:35:38;;;;;;;8.90;7.30;;;;;;;;;;5042438;28;20040;-80
2023/06/30 02:38:05;;;;;;;9.73;7.22;;;;;;;;;;5059047;28;20416;-80
2023/06/30 02:40:31;;;;;;;7.93;7.13;;;;;;;;;;5042783;28;20024;-80
2023/06/30 02:42:56;;;;;;;9.55;6.85;;;;;;;;;;5059232;28;20032;-80
2023/06/30 02:45:22;;;;;;;8.80;7.90;;;;;;;;;;5076956;28;20189;-79
2023/06/30 02:47:47;;;;;;;8.43;7.47;;;;;;;;;;5042285;28;20028;-80
2023/06/30 02:50:12;;;;;;;11.15;7.05;;;;;;;;;;5076865;28;20446;-80
2023/06/30 02:52:38;;;;;;;10.88;6.70;;;;;;;;;;5042602;28;20479;-80
2023/06/30 02:55:04;;;;;;;8.73;7.05;;;;;;;;;;5042260;28;20035;-80
2023/06/30 02:57:29;;;;;;;8.25;7.20;;;;;;;;;;5076503;28;20044;-80
2023/06/30 02:59:54;;;;;;;11.95;7.40;;;;;;;;;;5058930;28;20074;-80
2023/06/30 03:02:20;;;;;;;11.93;7.53;;;;;;;;;;5058311;28;20361;-80
2023/06/30 03:04:45;;;;;;;8.80;7.43;;;;;;;;;;5076572;28;20025;-80
2023/06/30 03:07:11;;;;;;;13.60;8.13;;;;;;;;;;5058499;28;20024;-80
2023/06/30 03:09:36;;;;;;;9.80;7.88;;;;;;;;;;5076321;28;20024;-80
2023/06/30 03:12:02;;;;;;;10.60;7.80;;;;;;;;;;5058723;28;20044;-80
2023/06/30 03:14:27;;;;;;;9.45;8.07;;;;;;;;;;5042045;28;20548;-80
2023/06/30 03:16:53;;;;;;;10.50;7.70;;;;;;;;;;5057999;28;20034;-80
2023/06/30 03:19:18;;;;;;;9.98;7.75;;;;;;;;;;5058269;28;20103;-80
2023/06/30 03:21:43;;;;;;;14.98;8.05;;;;;;;;;;5076063;28;20024;-80
2023/06/30 03:24:09;;;;;;;9.00;7.95;;;;;;;;;;5076037;28;20474;-80
2023/06/30 03:26:34;;;;;;;10.10;7.97;;;;;;;;;;5024996;28;20039;-80
2023/06/30 03:29:01;;;;;;;11.50;7.93;;;;;;;;;;5058069;28;20119;-80
2023/06/30 03:31:26;;;;;;;9.02;7.97;;;;;;;;;;5040570;28;20070;-80
2023/06/30 03:33:52;;;;;;;11.35;8.27;;;;;;;;;;5041530;28;20405;-81
2023/06/30 03:36:17;;;;;;;10.88;8.05;;;;;;;;;;5058160;28;20028;-81
2023/06/30 03:38:42;;;;;;;10.63;7.70;;;;;;;;;;5057912;28;20033;-80
2023/06/30 03:41:08;;;;;;;9.20;7.93;;;;;;;;;;5075748;28;20497;-79
2023/06/30 03:43:33;;;;;;;8.85;8.02;;;;;;;;;;5058257;28;20028;-80
2023/06/30 03:45:59;;;;;;;9.05;8.15;;;;;;;;;;5057597;28;20020;-79
2023/06/30 03:48:24;;;;;;;11.10;8.35;;;;;;;;;;5057634;28;20024;-80
2023/06/30 03:50:52;;;;;;;10.27;8.10;;;;;;;;;;5075449;28;20021;-80
2023/06/30 03:53:17;;;;;;;10.20;7.82;;;;;;;;;;5057642;28;20450;-79
2023/06/30 03:55:43;;;;;;;16.00;8.15;;;;;;;;;;5057695;28;20036;-79
2023/06/30 03:58:08;;;;;;;14.23;8.10;;;;;;;;;;5057651;28;20024;-80
2023/06/30 04:00:33;;;;;;;12.63;8.10;;;;;;;;;;5057545;28;20031;-80
2023/06/30 04:02:59;;;;;;;12.60;9.60;;;;;;;;;;5040853;28;20462;-80
2023/06/30 04:05:25;;;;;;;15.60;9.77;;;;;;;;;;5057651;28;20033;-80
2023/06/30 04:07:50;;;;;;;13.40;9.52;;;;;;;;;;5057346;28;20028;-79
2023/06/30 04:10:16;;;;;;;14.02;8.80;;;;;;;;;;5074646;28;20033;-79
2023/06/30 04:12:44;;;;;;;12.55;8.45;;;;;;;;;;5057434;28;20025;-80
2023/06/30 04:15:10;;;;;;;11.43;7.85;;;;;;;;;;5074684;28;20029;-80
2023/06/30 04:17:36;;;;;;;10.48;7.80;;;;;;;;;;5057140;28;20082;-78
2023/06/30 04:20:09;;;;;;;10.82;7.63;;;;;;;;;;5075310;28;20118;-81
2023/06/30 04:22:38;;;;;;;9.15;7.13;;;;;;;;;;5057237;28;20031;-81
2023/06/30 04:25:06;;;;;;;8.43;7.22;;;;;;;;;;5057210;28;20035;-78
2023/06/30 04:27:32;;;;;;;10.35;7.25;;;;;;;;;;5074507;28;20028;-80
2023/06/30 04:29:57;;;;;;;12.18;7.32;;;;;;;;;;5056757;28;20028;-79
2023/06/30 04:32:23;;;;;;;9.88;7.13;;;;;;;;;;5074900;28;20032;-79
2023/06/30 04:34:49;;;;;;;8.13;6.85;;;;;;;;;;5074452;28;20029;-79
2023/06/30 04:37:14;;;;;;;12.32;7.80;;;;;;;;;;5074407;28;20364;-80
2023/06/30 04:39:42;;;;;;;13.63;8.05;;;;;;;;;;5040067;28;20036;-80
2023/06/30 04:42:07;;;;;;;16.17;8.70;;;;;;;;;;5073921;28;20024;-80
2023/06/30 04:44:33;;;;;;;12.80;8.95;;;;;;;;;;5056968;28;20131;-80
2023/06/30 04:46:58;;;;;;;11.75;8.80;;;;;;;;;;5056515;28;20103;-80
2023/06/30 04:49:24;;;;;;;11.52;7.97;;;;;;;;;;5074547;28;20024;-79
2023/06/30 04:51:50;;;;;;;12.45;7.88;;;;;;;;;;5039756;28;20054;-79
2023/06/30 04:54:15;;;;;;;11.32;7.15;;;;;;;;;;5056002;28;20458;-79
2023/06/30 04:56:41;;;;;;;13.23;7.22;;;;;;;;;;5055368;28;20430;-79
2023/06/30 04:59:06;;;;;;;9.63;6.95;;;;;;;;;;5056263;28;20110;-80
2023/06/30 05:01:32;;;;;;;11.73;7.45;;;;;;;;;;5038694;28;20031;-82
2023/06/30 05:03:58;;;;;;;10.77;7.88;;;;;;;;;;5056300;28;20032;-79
2023/06/30 05:06:24;;;;;;;9.82;7.00;;;;;;;;;;5040319;28;20027;-80
2023/06/30 05:08:50;;;;;;;16.10;7.22;;;;;;;;;;5057532;28;20024;-79
2023/06/30 05:11:15;;;;;;;10.75;6.70;;;;;;;;;;5074131;28;20032;-80
2023/06/30 05:13:41;;;;;;;10.15;6.45;;;;;;;;;;5074196;28;20119;-80
2023/06/30 05:16:06;;;;;;;10.25;6.25;;;;;;;;;;5056268;28;20020;-81
2023/06/30 05:18:32;;;;;;;7.20;5.75;;;;;;;;;;5073724;28;20051;-80
2023/06/30 05:20:57;;;;;;;10.30;6.45;;;;;;;;;;5037389;28;20469;-79
2023/06/30 05:23:23;;;;;;;10.52;5.85;;;;;;;;;;5037599;28;20079;-80
2023/06/30 05:25:49;;;;;;;10.93;5.85;;;;;;;;;;5072228;28;20027;-80
2023/06/30 05:28:14;;;;;;;6.82;5.97;;;;;;;;;;5054333;28;20020;-80
2023/06/30 05:30:40;;;;;;;11.10;5.95;;;;;;;;;;5021730;28;20071;-81
2023/06/30 05:33:05;;;;;;;8.68;5.43;;;;;;;;;;5054705;28;20027;-82
2023/06/30 05:35:31;;;;;;;7.18;5.65;;;;;;;;;;5039253;28;20032;-79
2023/06/30 05:37:56;;;;;;;7.80;5.30;;;;;;;;;;5039086;28;20024;-79
2023/06/30 05:40:22;;;;;;;7.75;5.20;;;;;;;;;;5055894;28;20033;-87
2023/06/30 05:42:47;;;;;;;5.43;4.70;;;;;;;;;;5074032;28;20071;-87
2023/06/30 05:45:13;;;;;;;12.02;5.10;;;;;;;;;;5056264;28;20108;-86
2023/06/30 05:47:38;;;;;;;6.60;4.97;;;;;;;;;;5056216;28;20399;-87
2023/06/30 05:50:04;;;;;;;5.85;4.60;;;;;;;;;;5039755;28;20442;-87
2023/06/30 05:52:29;;;;;;;7.15;4.60;;;;;;;;;;5074404;28;20055;-88
2023/06/30 05:54:55;;;;;;;8.50;4.68;;;;;;;;;;5041145;28;20455;-87
2023/06/30 05:57:20;;;;;;;7.97;4.70;;;;;;;;;;5044266;28;20025;-89
2023/06/30 05:59:46;;;;;;;5.32;4.43;;;;;;;;;;5060276;28;20371;-87
2023/06/30 06:02:11;;;;;;;7.45;4.57;;;;;;;;;;5078051;28;20375;-87
2023/06/30 06:04:37;;;;;;;7.43;4.53;;;;;;;;;;5042614;28;20024;-87
2023/06/30 06:07:05;;;;;;;7.95;4.53;;;;;;;;;;5042442;28;20038;-86
2023/06/30 06:09:31;;;;;;;7.65;4.30;;;;;;;;;;5057452;28;20296;-91
2023/06/30 06:11:56;;;;;;;6.05;3.90;;;;;;;;;;5040004;28;20032;-88
2023/06/30 06:14:22;;;;;;;7.80;3.88;;;;;;;;;;5024311;28;20045;-87
2023/06/30 06:16:47;;;;;;;6.10;3.88;;;;;;;;;;5057715;28;20486;-89
2023/06/30 06:19:14;;;;;;;6.40;3.80;;;;;;;;;;5039713;28;20452;-88
2023/06/30 06:21:40;;;;;;;5.90;3.50;;;;;;;;;;5024574;28;20055;-91
2023/06/30 06:24:07;;;;;;;8.20;3.60;;;;;;;;;;5057884;28;20029;-89
2023/06/30 06:26:33;;;;;;;4.75;3.20;;;;;;;;;;5059426;28;20160;-87
2023/06/30 06:28:58;;;;;;;3.90;2.85;;;;;;;;;;5040534;28;20135;-88
2023/06/30 06:31:24;;;;;;;4.82;3.20;;;;;;;;;;5076704;28;20040;-90
2023/06/30 06:33:50;;;;;;;9.07;4.00;;;;;;;;;;5075539;28;20558;-88
2023/06/30 06:36:15;;;;;;;7.85;3.35;;;;;;;;;;5056946;28;20111;-89
2023/06/30 06:38:40;;;;;;;4.28;3.88;;;;;;;;;;5041660;28;20050;-90
2023/06/30 06:41:06;;;;;;;5.05;3.53;;;;;;;;;;5059270;28;20035;-89
2023/06/30 06:43:33;;;;;;;4.95;3.40;;;;;;;;;;5058346;28;20083;-89
2023/06/30 06:45:58;;;;;;;4.18;3.22;;;;;;;;;;5043727;28;20089;-87
2023/06/30 06:48:27;;;;;;;4.13;3.22;;;;;;;;;;5043658;28;20044;-87
2023/06/30 06:50:53;;;;;;;4.38;3.50;;;;;;;;;;5075584;28;20081;-85
2023/06/30 06:53:25;;;;;;;5.20;3.50;;;;;;;;;;5075461;28;20123;-84
2023/06/30 06:55:51;;;;;;;5.43;3.13;;;;;;;;;;5041867;28;20076;-84
2023/06/30 06:58:16;;;;;;;3.83;2.90;;;;;;;;;;5075170;28;20036;-84
2023/06/30 07:00:43;;;;;;;7.78;3.83;;;;;;;;;;5071536;28;20036;-84
2023/06/30 07:03:08;;;;;;;9.70;3.53;;;;;;;;;;5052494;28;20052;-86
2023/06/30 07:05:34;;;;;;;4.05;3.22;;;;;;;;;;5061703;28;20025;-88
2023/06/30 07:08:04;;;;;;;7.72;3.60;;;;;;;;;;5060950;28;20103;-88
2023/06/30 07:10:30;;;;;;;6.95;3.35;;;;;;;;;;5065921;28;20043;-89
2023/06/30 07:13:00;;;;;;;4.90;3.13;;;;;;;;;;5072502;28;20040;-89
2023/06/30 07:15:25;;;;;;;4.85;3.13;;;;;;;;;;5076484;28;20074;-86
2023/06/30 07:17:51;;;;;;;5.20;3.00;;;;;;;;;;5093073;28;20029;-89
2023/06/30 07:20:16;;;;;;;6.53;3.15;;;;;;;;;;5085291;28;20064;-88
2023/06/30 07:22:42;;;;;;;4.43;3.42;;;;;;;;;;5067834;28;20008;-87
2023/06/30 07:25:08;;;;;;;8.75;3.92;;;;;;;;;;5087723;28;20072;-87
2023/06/30 07:27:37;;;;;;;86.53;22.17;;;;;;;;;;5076036;28;20036;-88
2023/06/30 07:30:03;;;;;;;4.97;3.60;;;;;;;;;;5093071;28;20021;-86
2023/06/30 07:32:30;;;;;;;5.70;2.80;;;;;;;;;;5074711;28;20032;-88
2023/06/30 07:34:55;;;;;;;7.97;3.05;;;;;;;;;;5021543;28;20032;-87
2023/06/30 07:37:22;;;;;;;5.15;3.20;;;;;;;;;;5061332;28;20027;-89
2023/06/30 07:39:48;;;;;;;7.82;2.58;;;;;;;;;;5077593;28;20069;-86
2023/06/30 07:42:14;;;;;;;3.25;2.47;;;;;;;;;;5059058;28;20028;-89
2023/06/30 07:44:40;;;;;;;3.83;2.50;;;;;;;;;;5040204;28;20044;-87
2023/06/30 07:47:05;;;;;;;3.58;2.20;;;;;;;;;;5058070;28;20021;-88
2023/06/30 07:49:31;;;;;;;2.50;2.30;;;;;;;;;;5041398;28;20044;-86
2023/06/30 07:51:56;;;;;;;2.78;2.33;;;;;;;;;;5057403;28;20151;-88
2023/06/30 07:54:21;;;;;;;4.90;2.58;;;;;;;;;;5076260;28;20036;-88
2023/06/30 07:56:47;;;;;;;4.15;2.50;;;;;;;;;;5075836;28;20526;-89
2023/06/30 07:59:13;;;;;;;3.05;2.30;;;;;;;;;;5057650;28;20036;-89
2023/06/30 08:01:38;;;;;;;2.90;2.22;;;;;;;;;;5058127;28;20122;-87
2023/06/30 08:04:04;;;;;;;3.08;2.40;;;;;;;;;;5058044;28;20389;-88
2023/06/30 08:06:29;;;;;;;3.88;2.25;;;;;;;;;;5057518;28;20111;-88
2023/06/30 08:08:54;;;;;;;2.47;2.20;;;;;;;;;;5058024;28;20058;-87
2023/06/30 08:11:20;;;;;;;4.47;2.20;;;;;;;;;;5058563;28;20028;-79
2023/06/30 08:13:45;;;;;;;2.65;2.42;;;;;;;;;;5041133;28;20029;-81
2023/06/30 08:16:11;;;;;;;2.50;2.30;;;;;;;;;;5058423;28;20077;-81
2023/06/30 08:18:36;;;;;;;3.75;2.50;;;;;;;;;;5074230;28;20066;-81
2023/06/30 08:21:02;;;;;;;5.20;2.20;;;;;;;;;;5074331;28;20107;-82
2023/06/30 08:23:27;;;;;;;5.85;2.15;;;;;;;;;;5074950;28;20107;-82
2023/06/30 08:25:54;;;;;;;3.67;2.30;;;;;;;;;;5056563;28;20543;-82
2023/06/30 08:28:21;;;;;;;2.70;2.13;;;;;;;;;;5040543;28;20112;-81
2023/06/30 08:30:47;;;;;;;1.90;1.80;;;;;;;;;;5074865;28;20023;-80
2023/06/30 08:33:12;;;;;;;2.75;1.90;;;;;;;;;;5040325;28;20025;-81
2023/06/30 08:35:38;;;;;;;5.45;2.08;;;;;;;;;;5036162;28;20320;-81
2023/06/30 08:38:04;;;;;;;4.80;2.00;;;;;;;;;;5038697;28;20475;-81
2023/06/30 08:40:31;;;;;;;8.57;2.22;;;;;;;;;;5040104;28;20354;-81
2023/06/30 08:43:00;;;;;;;2.53;2.08;;;;;;;;;;5074383;28;20020;-82
2023/06/30 08:45:27;;;;;;;2.92;2.22;;;;;;;;;;5039921;28;20158;-82
2023/06/30 08:47:54;;;;;;;2.83;2.05;;;;;;;;;;5040612;28;20044;-81
2023/06/30 08:50:21;;;;;;;2.20;2.00;;;;;;;;;;5039602;28;20032;-81
2023/06/30 08:52:47;;;;;;;2.05;1.85;;;;;;;;;;5037269;28;20041;-81
2023/06/30 08:55:13;;;;;;;3.10;2.35;;;;;;;;;;5020474;28;20459;-81
2023/06/30 08:57:41;;;;;;;2.17;1.98;;;;;;;;;;5052759;28;20037;-79
2023/06/30 09:00:07;;;;;;;2.10;2.00;;;;;;;;;;5045435;28;20029;-81
2023/06/30 09:02:32;;;;;;;4.93;2.08;;;;;;;;;;5066686;28;20116;-81
2023/06/30 09:04:58;;;;;;;4.28;2.10;;;;;;;;;;5053675;28;20036;-81
2023/06/30 09:07:28;;;;;;;3.25;2.17;;;;;;;;;;5046261;28;20049;-79
2023/06/30 09:09:55;;;;;;;1.90;1.80;;;;;;;;;;5036751;28;20068;-82
2023/06/30 09:12:20;;;;;;;2.90;2.20;;;;;;;;;;5039675;28;20463;-80
2023/06/30 09:14:46;;;;;;;2.13;1.92;;;;;;;;;;5053369;28;20033;-80
2023/06/30 09:17:12;;;;;;;5.38;2.05;;;;;;;;;;5037744;28;20356;-80
2023/06/30 09:19:38;;;;;;;2.20;2.00;;;;;;;;;;5053972;28;20111;-82
2023/06/30 09:22:04;;;;;;;3.17;1.85;;;;;;;;;;5036133;28;20401;-80
2023/06/30 09:24:30;;;;;;;3.92;2.00;;;;;;;;;;5052209;28;20701;-80
2023/06/30 09:26:55;;;;;;;3.67;1.90;;;;;;;;;;5035912;28;20056;-80
2023/06/30 09:29:21;;;;;;;2.75;1.95;;;;;;;;;;5034727;28;20065;-79
2023/06/30 09:31:50;;;;;;;3.00;2.10;;;;;;;;;;5052585;28;20448;-80
2023/06/30 09:34:15;;;;;;;;;;;;;;;;;;5019344;28;20460;-79
2023/06/30 09:36:51;;;;;;;2.97;2.10;;;;;;;;;;5036496;28;19912;-79
2023/06/30 09:39:17;;;;;;;2.33;1.80;;;;;;;;;;5052724;28;20091;-80
2023/06/30 09:41:43;;;;;;;2.70;1.95;;;;;;;;;;5052653;28;20127;-80
2023/06/30 09:44:13;;;;;;;4.53;1.90;;;;;;;;;;5052294;28;20029;-80
2023/06/30 09:46:51;;;;;;;3.72;2.05;;;;;;;;;;5053443;28;20071;-80
2023/06/30 09:49:26;;;;;;;2.75;1.80;;;;;;;;;;5053670;28;20120;-80
2023/06/30 09:51:53;;;;;;;3.25;1.80;;;;;;;;;;5055160;28;20033;-80
2023/06/30 09:54:19;;;;;;;2.03;1.77;;;;;;;;;;5056070;28;20060;-79
2023/06/30 09:56:48;;;;;;;3.58;1.70;;;;;;;;;;5040023;28;20074;-80
2023/06/30 09:59:13;;;;;;;3.67;2.00;;;;;;;;;;5039739;28;20512;-80
2023/06/30 10:01:42;;;;;;;2.20;2.00;;;;;;;;;;5022391;28;20028;-78
2023/06/30 10:04:07;;;;;;;4.38;1.83;;;;;;;;;;5022883;28;20048;-80
2023/06/30 10:06:33;;;;;;;6.72;1.92;;;;;;;;;;5055696;28;20029;-79
2023/06/30 10:08:58;;;;;;;1.88;1.77;;;;;;;;;;5038851;28;20127;-78
2023/06/30 10:11:24;;;;;;;2.33;2.00;;;;;;;;;;5038221;28;20032;-78
2023/06/30 10:13:53;;;;;;;2.15;1.65;;;;;;;;;;5053833;28;20059;-79
2023/06/30 10:16:19;;;;;;;3.75;1.80;;;;;;;;;;5054437;28;20370;-81
2023/06/30 10:18:45;;;;;;;4.40;2.00;;;;;;;;;;5020928;28;20043;-82
2023/06/30 10:21:11;;;;;;;5.00;1.85;;;;;;;;;;5021049;28;20039;-79
2023/06/30 10:23:36;;;;;;;3.17;2.00;;;;;;;;;;5037205;28;20032;-79
2023/06/30 10:26:02;;;;;;;7.57;1.90;;;;;;;;;;5037186;28;20058;-80
2023/06/30 10:28:27;;;;;;;3.22;2.00;;;;;;;;;;5072215;28;20082;-80
2023/06/30 10:30:53;;;;;;;3.55;1.90;;;;;;;;;;5038526;28;20032;-80
2023/06/30 10:33:19;;;;;;;2.35;1.73;;;;;;;;;;5020743;28;20040;-79
2023/06/30 10:35:44;;;;;;;4.28;1.75;;;;;;;;;;5053815;28;20039;-80
2023/06/30 10:38:10;;;;;;;2.97;1.85;;;;;;;;;;5037025;28;20080;-79
2023/06/30 10:40:35;;;;;;;2.08;1.70;;;;;;;;;;5037682;28;20372;-80
2023/06/30 10:43:03;;;;;;;1.92;1.75;;;;;;;;;;5074949;28;20059;-80
2023/06/30 10:45:29;;;;;;;2.17;1.80;;;;;;;;;;5040760;28;20127;-80
2023/06/30 10:47:55;;;;;;;2.95;1.70;;;;;;;;;;5024721;28;20047;-80
2023/06/30 10:50:21;;;;;;;2.17;2.03;;;;;;;;;;5058925;28;20025;-80
2023/06/30 10:52:51;;;;;;;2.13;2.00;;;;;;;;;;5042097;28;20040;-80
2023/06/30 10:55:19;;;;;;;7.40;5.30;;;;;;;;;;5058593;28;20337;-80
2023/06/30 10:57:46;;;;;;;5.53;2.10;;;;;;;;;;5058884;28;20034;-79
2023/06/30 11:00:12;;;;;;;6.45;2.30;;;;;;;;;;5042678;28;20107;-80
2023/06/30 11:03:06;;;;;;;2.22;1.98;;;;;;;;;;5060060;28;20033;-82
2023/06/30 11:05:35;;;;;;;2.55;2.03;;;;;;;;;;5044156;28;20040;-82
2023/06/30 11:08:09;;;;;;;2.85;2.05;;;;;;;;;;5059148;28;20035;-82
2023/06/30 11:10:44;;;;;;;4.45;2.10;;;;;;;;;;5076360;28;20490;-82
2023/06/30 11:13:10;;;;;;;5.00;2.00;;;;;;;;;;5058584;28;20028;-81
2023/06/30 11:15:41;;;;;;;4.82;2.05;;;;;;;;;;5041225;28;20047;-81
2023/06/30 11:18:20;;;;;;;2.58;1.92;;;;;;;;;;5076675;28;20032;-81
2023/06/30 11:21:02;;;;;;;;;;;;;;;;;;5042251;28;20418;-82
2023/06/30 11:23:28;;;;;;;3.58;1.90;;;;;;;;;;5076168;28;19912;-82
2023/06/30 11:25:57;;;;;;;2.42;1.92;;;;;;;;;;5025480;28;20056;-82
2023/06/30 11:28:26;;;;;;;2.60;2.00;;;;;;;;;;5042204;28;20111;-82
2023/06/30 11:30:52;;;;;;;1.90;1.70;;;;;;;;;;5041466;28;20111;-82
2023/06/30 11:33:18;;;;;;;3.05;1.90;;;;;;;;;;5041961;28;20052;-81
2023/06/30 11:35:45;;;;;;;2.72;1.92;;;;;;;;;;5041852;28;20112;-81
2023/06/30 11:38:10;;;;;;;2.20;1.90;;;;;;;;;;5042661;28;20040;-85
2023/06/30 11:40:44;;;;;;;2.03;1.90;;;;;;;;;;5066794;28;20029;-86
2023/06/30 11:43:10;;;;;;;2.60;2.00;;;;;;;;;;5066437;28;20110;-86
2023/06/30 11:45:35;;;;;;;2.08;1.73;;;;;;;;;;5078231;28;20477;-85
2023/06/30 11:48:01;;;;;;;2.00;1.80;;;;;;;;;;5058288;28;20024;-84
2023/06/30 11:50:26;;;;;;;3.70;2.00;;;;;;;;;;5057452;28;20378;-85
2023/06/30 11:52:51;;;;;;;5.47;2.30;;;;;;;;;;5023385;28;20463;-85
2023/06/30 11:55:17;;;;;;;3.70;2.10;;;;;;;;;;5057715;28;20466;-87
2023/06/30 11:57:46;;;;;;;2.40;2.20;;;;;;;;;;5075553;28;20031;-86
2023/06/30 12:00:13;;;;;;;4.00;2.00;;;;;;;;;;5058589;28;20367;-86
2023/06/30 12:02:45;;;;;;;2.22;2.03;;;;;;;;;;5057573;28;20123;-86
2023/06/30 12:05:15;;;;;;;2.30;1.92;;;;;;;;;;5076570;28;20036;-93
2023/06/30 12:07:41;;;;;;;2.83;2.00;;;;;;;;;;5058665;28;20029;-88
2023/06/30 12:10:08;;;;;;;2.28;2.08;;;;;;;;;;5041600;28;20056;-88
2023/06/30 12:12:34;;;;;;;3.45;2.00;;;;;;;;;;5075286;28;20040;-86
2023/06/30 12:15:02;;;;;;;2.20;2.00;;;;;;;;;;5057505;28;20037;-86
2023/06/30 12:17:29;;;;;;;7.32;2.17;;;;;;;;;;5039556;28;20025;-85
2023/06/30 12:19:55;;;;;;;3.10;1.80;;;;;;;;;;5074605;28;20063;-86
2023/06/30 12:22:27;;;;;;;4.60;1.90;;;;;;;;;;5053961;28;20070;-85
2023/06/30 12:24:57;;;;;;;2.55;2.20;;;;;;;;;;5021552;28;20106;-83
2023/06/30 12:27:25;;;;;;;2.25;2.03;;;;;;;;;;5053453;28;20040;-84
2023/06/30 12:29:51;;;;;;;2.38;2.13;;;;;;;;;;5005651;28;20029;-86
2023/06/30 12:32:16;;;;;;;2.05;1.95;;;;;;;;;;5020599;28;20033;-81
2023/06/30 12:34:42;;;;;;;1.90;1.80;;;;;;;;;;5003978;28;20037;-85
2023/06/30 12:37:07;;;;;;;2.28;2.05;;;;;;;;;;5018555;28;20044;-84
2023/06/30 12:39:33;;;;;;;3.65;2.20;;;;;;;;;;5054245;28;20024;-84
2023/06/30 12:41:58;;;;;;;3.72;2.00;;;;;;;;;;5020084;28;20460;-86
2023/06/30 12:44:23;;;;;;;2.67;2.00;;;;;;;;;;5037140;28;20041;-84
2023/06/30 12:47:02;;;;;;;2.20;1.98;;;;;;;;;;5004667;28;20463;-86
2023/06/30 12:49:30;;;;;;;2.53;1.90;;;;;;;;;;5036005;28;20092;-88
2023/06/30 12:51:56;;;;;;;2.33;2.13;;;;;;;;;;5018825;28;20053;-83
2023/06/30 12:54:22;;;;;;;4.13;2.05;;;;;;;;;;5051261;28;20328;-87
2023/06/30 12:56:47;;;;;;;2.55;2.20;;;;;;;;;;5017962;28;20032;-85
2023/06/30 12:59:13;;;;;;;2.85;2.30;;;;;;;;;;5001726;28;20450;-86
2023/06/30 13:01:38;;;;;;;2.80;2.20;;;;;;;;;;5004195;28;20032;-83
2023/06/30 13:04:04;;;;;;;4.50;1.80;;;;;;;;;;5036458;28;20033;-84
2023/06/30 13:06:30;;;;;;;5.03;2.25;;;;;;;;;;5036283;28;20025;-86
2023/06/30 13:08:55;;;;;;;2.15;1.95;;;;;;;;;;5054705;28;20459;-82
2023/06/30 13:11:23;;;;;;;4.88;2.20;;;;;;;;;;5054502;28;20469;-87
2023/06/30 13:13:48;;;;;;;2.55;1.88;;;;;;;;;;5012959;28;20033;-86
2023/06/30 13:16:14;;;;;;;2.45;2.25;;;;;;;;;;5034508;28;20484;-87
2023/06/30 13:18:39;;;;;;;3.38;1.80;;;;;;;;;;5000721;28;20051;-84
2023/06/30 13:21:05;;;;;;;2.88;1.90;;;;;;;;;;5018482;28;20028;-85
2023/06/30 13:23:30;;;;;;;2.95;2.10;;;;;;;;;;5034015;28;20587;-86
2023/06/30 13:25:56;;;;;;;4.18;2.10;;;;;;;;;;5033935;28;20029;-84
2023/06/30 13:28:21;;;;;;;3.30;1.85;;;;;;;;;;5052076;28;20036;-86
2023/06/30 13:30:47;;;;;;;2.28;2.00;;;;;;;;;;5052110;28;20028;-90
2023/06/30 13:33:12;;;;;;;3.83;2.00;;;;;;;;;;5017995;28;20132;-85
2023/06/30 13:35:38;;;;;;;4.53;1.90;;;;;;;;;;5036266;28;20368;-83
2023/06/30 13:38:03;;;;;;;2.97;1.88;;;;;;;;;;5053457;28;20033;-82
2023/06/30 13:40:29;;;;;;;2.25;1.98;;;;;;;;;;5053974;28;20040;-87
2023/06/30 13:42:55;;;;;;;3.83;1.85;;;;;;;;;;5038330;28;20112;-84
2023/06/30 13:45:20;;;;;;;4.97;2.10;;;;;;;;;;5000427;28;20119;-87
2023/06/30 13:47:46;;;;;;;2.08;1.80;;;;;;;;;;5000924;28;20025;-90
2023/06/30 13:50:12;;;;;;;2.25;2.00;;;;;;;;;;5016559;28;20057;-90
2023/06/30 13:52:38;;;;;;;2.40;2.20;;;;;;;;;;5016908;28;20416;-85
2023/06/30 13:55:04;;;;;;;2.67;1.73;;;;;;;;;;5015779;28;20032;-84
2023/06/30 13:57:30;;;;;;;3.47;1.80;;;;;;;;;;5015884;28;20028;-84
2023/06/30 13:59:56;;;;;;;1.73;1.63;;;;;;;;;;5034319;28;20526;-83
2023/06/30 14:02:21;;;;;;;1.88;1.77;;;;;;;;;;5033309;28;20080;-82
2023/06/30 14:04:47;;;;;;;2.10;1.90;;;;;;;;;;5015841;28;20087;-82
2023/06/30 14:07:13;;;;;;;2.35;1.75;;;;;;;;;;5000599;28;20122;-84
2023/06/30 14:09:38;;;;;;;4.75;2.00;;;;;;;;;;5015925;28;20429;-84
2023/06/30 14:12:05;;;;;;;4.43;2.00;;;;;;;;;;4999522;28;20728;-84
2023/06/30 14:14:30;;;;;;;1.95;1.80;;;;;;;;;;4999580;28;20039;-82
2023/06/30 14:16:56;;;;;;;2.03;1.83;;;;;;;;;;5002265;28;20032;-83
2023/06/30 14:19:21;;;;;;;4.80;1.90;;;;;;;;;;5037851;28;20059;-83
2023/06/30 14:21:46;;;;;;;6.07;1.90;;;;;;;;;;5020223;28;20030;-84
2023/06/30 14:24:12;;;;;;;2.92;2.00;;;;;;;;;;5018956;28;20100;-83
2023/06/30 14:26:37;;;;;;;2.25;1.85;;;;;;;;;;5003062;28;20033;-83
2023/06/30 14:29:03;;;;;;;1.90;1.80;;;;;;;;;;5037151;28;20095;-85
2023/06/30 14:31:28;;;;;;;2.58;1.80;;;;;;;;;;5037515;28;20468;-86
2023/06/30 14:33:54;;;;;;;2.45;1.77;;;;;;;;;;5019369;28;20027;-81
2023/06/30 14:36:19;;;;;;;3.13;1.92;;;;;;;;;;5003134;28;20033;-81